This is the latest recevied weather packets stored in our database for station/object KF4WSW-13. If no packets are shown the sender has not sent any weather packets the latest 1 day(s).
| Time | Temp. | Humidity | Pressure | Rain* | Wind** | Luminosity | Snow |
|---|---|---|---|---|---|---|---|
| 1777994653 | 26.11° C | 64% | 1014.5 hPa | 0 mm | 0.89 m/s, 158° | 289 W/m² | - |
| 1777994353 | 26.67° C | 64% | 1014.6 hPa | 0 mm | 0.89 m/s, 132° | 399 W/m² | - |
| 1777994050 | 26.67° C | 62% | 1014.5 hPa | 0 mm | 2.24 m/s, 223° | 761 W/m² | - |
| 1777993747 | 25.56° C | 67% | 1014.5 hPa | 0 mm | 2.24 m/s, 88° | 661 W/m² | - |
| 1777993445 | 25° C | 71% | 1014.7 hPa | 0 mm | 2.24 m/s, 104° | 302 W/m² | - |
| 1777993144 | 25° C | 69% | 1014.4 hPa | 0 mm | 3.13 m/s, 117° | 526 W/m² | - |
| 1777992842 | 25.56° C | 69% | 1014.6 hPa | 0 mm | 2.24 m/s, 147° | 246 W/m² | - |
| 1777992540 | 25.56° C | 67% | 1014.5 hPa | 0 mm | 1.34 m/s, 138° | 740 W/m² | - |
| 1777992238 | 25.56° C | 69% | 1014.5 hPa | 0 mm | 0.89 m/s, 239° | 573 W/m² | - |
| 1777991935 | 25° C | 69% | 1014.5 hPa | 0 mm | 2.24 m/s, 89° | 301 W/m² | - |
| 1777991633 | 25° C | 68% | 1014.6 hPa | 0 mm | 2.24 m/s, 132° | 573 W/m² | - |
| 1777991329 | 24.44° C | 69% | 1014.5 hPa | 0 mm | 1.79 m/s, 175° | 314 W/m² | - |
| 1777991027 | 25° C | 68% | 1014.5 hPa | 0 mm | 1.79 m/s, 124° | 585 W/m² | - |
| 1777990724 | 25° C | 69% | 1014.4 hPa | 0 mm | 4.02 m/s, 88° | 554 W/m² | - |
| 1777990421 | 24.44° C | 71% | 1014.4 hPa | 0 mm | 3.13 m/s, 85° | 526 W/m² | - |
| 1777990118 | 24.44° C | 70% | 1014.3 hPa | 0 mm | 4.47 m/s, 123° | 535 W/m² | - |
| 1777989814 | 23.89° C | 72% | 1014.3 hPa | 0 mm | 3.58 m/s, 111° | 428 W/m² | - |
| 1777989512 | 23.89° C | 71% | 1014.2 hPa | 0 mm | 4.92 m/s, 95° | 491 W/m² | - |
| 1777989208 | 24.44° C | 71% | 1014.1 hPa | 0 mm | 3.58 m/s, 93° | 430 W/m² | - |
| 1777988904 | 23.89° C | 73% | 1014.1 hPa | 0 mm | 2.24 m/s, 83° | 459 W/m² | - |
| 1777988601 | 23.89° C | 74% | 1013.9 hPa | 0 mm | 5.36 m/s, 98° | 456 W/m² | - |
| 1777988297 | 23.89° C | 75% | 1013.9 hPa | 0 mm | 3.58 m/s, 97° | 432 W/m² | - |
| 1777987995 | 23.89° C | 73% | 1014 hPa | 0 mm | 4.92 m/s, 92° | 393 W/m² | - |
| 1777987690 | 23.89° C | 75% | 1014 hPa | 0 mm | 1.79 m/s, 156° | 365 W/m² | - |
| 1777987387 | 23.89° C | 75% | 1013.8 hPa | 0 mm | 4.92 m/s, 100° | 379 W/m² | - |
* Rain latest hour (hover to see other rain measurements)
** Current wind speed in m/s (hover to see current wind gust speed)